createdAt,value
2023-10-30T00:02:19.215Z,98797.53
2023-10-30T00:04:59.686Z,98798.88
2023-10-30T00:07:29.032Z,98858.16
2023-10-30T00:09:58.761Z,98867.75
2023-10-30T00:12:26.800Z,98861.91
2023-10-30T00:14:56.884Z,98865.69
2023-10-30T00:17:25.287Z,98838.06
2023-10-30T00:19:53.509Z,98856.31
2023-10-30T00:22:22.680Z,98867.53
2023-10-30T00:24:51.003Z,98874.16
2023-10-30T00:27:20.284Z,98862.53
2023-10-30T00:29:48.837Z,98861.69
2023-10-30T00:32:17.783Z,98859.59
2023-10-30T00:34:46.473Z,98878.34
2023-10-30T00:37:14.832Z,98848.78
2023-10-30T00:39:42.853Z,98888.50
2023-10-30T00:42:11.921Z,98891.25
2023-10-30T00:44:41.696Z,98899.91
2023-10-30T00:47:10.142Z,98901.81
2023-10-30T00:49:38.282Z,98901.63
2023-10-30T00:52:07.466Z,98908.81
2023-10-30T00:54:35.856Z,98917.91
2023-10-30T00:57:04.162Z,98916.06
2023-10-30T00:59:32.762Z,98922.88
2023-10-30T01:02:03.128Z,98922.56
2023-10-30T01:04:31.450Z,98914.53
2023-10-30T01:06:59.978Z,98914.38
2023-10-30T01:09:28.054Z,98918.69
2023-10-30T01:11:57.816Z,98904.41
2023-10-30T01:14:26.013Z,98918.75
2023-10-30T01:16:54.010Z,98817.03
2023-10-30T01:19:25.103Z,98911.00
2023-10-30T01:21:53.203Z,98907.25
2023-10-30T01:24:21.295Z,98911.41
2023-10-30T01:26:50.424Z,98903.72
2023-10-30T01:29:19.043Z,98901.13
2023-10-30T01:31:47.074Z,98911.00
2023-10-30T01:34:15.962Z,98902.88
2023-10-30T01:36:46.097Z,98909.28
2023-10-30T01:39:14.384Z,98842.19
2023-10-30T01:41:42.562Z,98928.81
2023-10-30T01:44:10.606Z,98933.78
2023-10-30T01:46:39.225Z,98932.56
2023-10-30T01:49:08.092Z,98926.78
2023-10-30T01:51:38.229Z,98917.53
2023-10-30T01:54:08.719Z,98870.16
2023-10-30T01:56:37.423Z,98902.41
2023-10-30T01:59:05.932Z,98896.09
2023-10-30T02:01:38.914Z,98919.91
2023-10-30T02:04:08.581Z,98921.94
2023-10-30T02:06:36.583Z,98922.22
2023-10-30T02:09:05.099Z,98924.59
2023-10-30T02:11:34.579Z,98913.41
2023-10-30T02:14:04.349Z,98906.91
2023-10-30T02:16:32.686Z,98915.50
2023-10-30T02:19:00.839Z,98919.03
2023-10-30T02:21:28.889Z,98916.56
2023-10-30T02:23:57.482Z,98915.22
2023-10-30T02:26:26.987Z,98916.06
2023-10-30T02:28:58.034Z,98912.47
2023-10-30T02:31:27.156Z,98912.81
2023-10-30T02:33:55.172Z,98900.56
2023-10-30T02:36:23.698Z,98890.53
2023-10-30T02:38:51.572Z,98906.78
2023-10-30T02:41:20.174Z,98903.66
2023-10-30T02:43:50.009Z,98894.34
2023-10-30T02:46:18.307Z,98911.78
2023-10-30T02:48:46.140Z,98912.47
2023-10-30T02:51:14.386Z,98912.06
2023-10-30T02:53:42.677Z,98919.25
2023-10-30T02:56:10.953Z,98898.47
2023-10-30T02:58:39.101Z,98929.00
2023-10-30T03:01:08.793Z,98863.81
2023-10-30T03:03:37.199Z,98927.28
2023-10-30T03:06:06.595Z,98910.81
2023-10-30T03:08:34.615Z,98901.63
2023-10-30T03:11:03.177Z,98909.66
2023-10-30T03:13:31.314Z,98908.59
2023-10-30T03:16:00.103Z,98908.03
2023-10-30T03:18:30.407Z,98912.63
2023-10-30T03:20:58.897Z,98916.94
2023-10-30T03:23:26.799Z,98900.41
2023-10-30T03:25:55.689Z,98814.94
2023-10-30T03:28:23.974Z,98920.66
2023-10-30T03:30:52.939Z,98920.59
2023-10-30T03:33:22.104Z,98909.94
2023-10-30T03:35:51.546Z,98923.06
2023-10-30T03:38:19.757Z,98930.53
2023-10-30T03:40:48.158Z,98916.00
2023-10-30T03:43:17.309Z,98928.44
2023-10-30T03:45:47.063Z,98928.63
2023-10-30T03:48:16.301Z,98911.41
2023-10-30T03:50:45.632Z,98888.63
2023-10-30T03:53:14.916Z,98922.00
2023-10-30T03:55:43.629Z,98919.81
2023-10-30T03:58:11.594Z,98882.69
2023-10-30T04:00:39.869Z,98920.59
2023-10-30T04:03:08.328Z,98885.47
2023-10-30T04:05:36.882Z,98914.09
2023-10-30T04:08:05.212Z,98882.69
2023-10-30T04:10:34.825Z,98911.13
2023-10-30T04:13:03.049Z,98923.84
2023-10-30T04:15:31.155Z,98922.28
2023-10-30T04:18:01.595Z,98894.06
2023-10-30T04:20:32.938Z,98930.75
2023-10-30T04:23:01.500Z,98926.44
2023-10-30T04:25:29.367Z,98923.84
2023-10-30T04:27:59.620Z,98900.28
2023-10-30T04:30:27.958Z,98918.28
2023-10-30T04:32:56.448Z,98925.38
2023-10-30T04:35:24.527Z,98933.00
2023-10-30T04:37:52.707Z,98939.50
2023-10-30T04:40:20.730Z,98936.66
2023-10-30T04:42:49.190Z,98933.13
2023-10-30T04:45:19.444Z,98934.16
2023-10-30T04:47:47.605Z,98930.75
2023-10-30T04:50:16.010Z,98926.59
2023-10-30T04:52:44.809Z,98924.03
2023-10-30T04:55:13.035Z,98944.72
2023-10-30T04:57:41.037Z,98934.91
2023-10-30T05:00:10.796Z,98941.81
2023-10-30T05:02:40.417Z,98946.34
2023-10-30T05:05:08.910Z,98924.03
2023-10-30T05:07:38.961Z,98936.19
2023-10-30T05:10:07.455Z,98935.53
2023-10-30T05:12:36.796Z,98933.00
2023-10-30T05:15:05.946Z,98940.13
2023-10-30T05:17:33.975Z,98946.91
2023-10-30T05:20:05.095Z,98931.09
2023-10-30T05:22:35.115Z,98941.63
2023-10-30T05:25:04.240Z,98928.13
2023-10-30T05:27:32.787Z,98946.78
2023-10-30T05:30:01.470Z,98935.81
2023-10-30T05:32:29.682Z,98844.81
2023-10-30T05:34:58.888Z,98942.69
2023-10-30T05:37:28.682Z,98926.22
2023-10-30T05:39:56.958Z,98938.38
2023-10-30T05:42:25.265Z,98937.53
2023-10-30T05:44:53.654Z,98894.94
2023-10-30T05:47:21.889Z,98925.72
2023-10-30T05:49:50.283Z,98942.09
2023-10-30T05:52:18.704Z,98952.94
2023-10-30T05:54:48.556Z,98947.75
2023-10-30T05:57:16.741Z,98951.88
2023-10-30T05:59:45.845Z,98954.63
2023-10-30T06:02:15.523Z,98940.72
2023-10-30T06:04:44.279Z,98966.47
2023-10-30T06:07:12.414Z,98962.81
2023-10-30T06:09:40.718Z,98979.03
2023-10-30T06:12:10.843Z,98977.72
2023-10-30T06:14:39.019Z,98976.88
2023-10-30T06:17:07.912Z,98974.94
2023-10-30T06:19:37.679Z,98983.94
2023-10-30T06:22:06.518Z,98985.84
2023-10-30T06:24:34.997Z,98993.09
2023-10-30T06:27:03.527Z,98996.91
2023-10-30T06:29:33.635Z,98992.88
2023-10-30T06:32:01.888Z,99004.50
2023-10-30T06:34:30.053Z,99001.69
2023-10-30T06:36:58.406Z,99006.84
2023-10-30T06:39:26.750Z,98994.66
2023-10-30T06:41:56.516Z,98996.56
2023-10-30T06:44:25.669Z,98986.53
2023-10-30T06:46:58.078Z,98984.97
2023-10-30T06:49:26.545Z,98966.16
2023-10-30T06:51:54.907Z,98991.69
2023-10-30T06:54:23.144Z,98990.16
2023-10-30T06:56:52.032Z,98983.66
2023-10-30T06:59:20.138Z,98994.78
2023-10-30T07:01:49.198Z,98962.81
2023-10-30T07:04:19.059Z,99006.97
2023-10-30T07:06:47.781Z,98997.59
2023-10-30T07:09:16.332Z,99011.66
2023-10-30T07:11:44.766Z,99016.53
2023-10-30T07:14:13.044Z,99019.41
2023-10-30T07:16:57.057Z,99014.28
2023-10-30T07:19:31.349Z,99018.59
2023-10-30T07:21:59.862Z,98979.50
2023-10-30T07:24:28.359Z,99008.06
2023-10-30T07:26:59.195Z,99013.25
2023-10-30T07:29:27.306Z,99010.38
2023-10-30T07:31:56.835Z,99013.06
2023-10-30T07:34:26.090Z,98983.63
2023-10-30T07:36:55.864Z,99009.06
2023-10-30T07:39:24.370Z,99007.22
2023-10-30T07:41:53.503Z,98993.31
2023-10-30T07:44:23.935Z,99003.28
2023-10-30T07:46:52.628Z,99008.94
2023-10-30T07:49:20.982Z,99007.59
2023-10-30T07:51:48.997Z,98986.25
2023-10-30T07:54:18.947Z,98937.91
2023-10-30T07:56:47.013Z,99003.69
2023-10-30T07:59:15.661Z,99007.03
2023-10-30T08:01:46.828Z,99019.97
2023-10-30T08:04:15.155Z,99009.72
2023-10-30T08:06:44.395Z,99014.03
2023-10-30T08:09:13.422Z,99019.31
2023-10-30T08:11:44.551Z,99009.44
2023-10-30T08:14:12.863Z,99010.28
2023-10-30T08:16:41.124Z,99019.88
2023-10-30T08:19:09.126Z,99017.56
2023-10-30T08:21:37.217Z,99019.97
2023-10-30T08:24:06.041Z,99022.84
2023-10-30T08:26:34.291Z,98991.63
2023-10-30T08:29:04.311Z,99024.84
2023-10-30T08:31:32.649Z,98923.81
2023-10-30T08:34:02.332Z,98906.97
2023-10-30T08:36:30.661Z,99030.47
2023-10-30T08:38:59.047Z,98942.88
2023-10-30T08:41:28.088Z,99037.09
2023-10-30T08:43:56.450Z,99030.19
2023-10-30T08:46:26.015Z,99045.63
2023-10-30T08:48:54.393Z,99036.63
2023-10-30T08:51:22.433Z,99018.81
2023-10-30T08:53:52.998Z,99038.31
2023-10-30T08:56:21.485Z,99041.88
2023-10-30T08:58:49.400Z,99048.28
2023-10-30T09:01:17.601Z,99047.13
2023-10-30T09:03:46.996Z,99040.41
2023-10-30T09:06:15.417Z,99051.84
2023-10-30T09:08:43.759Z,99055.63
2023-10-30T09:11:11.842Z,99035.63
2023-10-30T09:13:40.505Z,99028.78
2023-10-30T09:16:10.003Z,99052.47
2023-10-30T09:18:38.282Z,99046.94
2023-10-30T09:21:08.405Z,99050.34
2023-10-30T09:23:37.302Z,99043.28
2023-10-30T09:26:05.916Z,99048.97
2023-10-30T09:28:34.350Z,99055.56
2023-10-30T09:31:02.601Z,99052.94
2023-10-30T09:33:30.704Z,99059.53
2023-10-30T09:35:59.136Z,99039.28
2023-10-30T09:38:28.517Z,99053.06
2023-10-30T09:41:02.413Z,99056.63
2023-10-30T09:43:31.020Z,99023.88
2023-10-30T09:46:01.905Z,99050.38
2023-10-30T09:48:33.397Z,99056.59
2023-10-30T09:51:02.163Z,99059.94
2023-10-30T09:53:32.276Z,99055.09
2023-10-30T09:56:01.201Z,99046.34
2023-10-30T09:58:30.236Z,99038.91
2023-10-30T10:00:59.234Z,99056.88
2023-10-30T10:03:27.690Z,99050.47
2023-10-30T10:05:57.691Z,99030.72
2023-10-30T10:08:27.455Z,99044.50
2023-10-30T10:10:58.044Z,99039.94
2023-10-30T10:13:27.037Z,99059.44
2023-10-30T10:15:56.306Z,99047.88
2023-10-30T10:18:26.537Z,99056.13
2023-10-30T10:21:00.111Z,99055.63
2023-10-30T10:23:31.719Z,99055.41
2023-10-30T10:26:04.274Z,99030.28
2023-10-30T10:28:33.653Z,99049.03
2023-10-30T10:31:02.245Z,99045.22
2023-10-30T10:33:31.194Z,99022.81
2023-10-30T10:36:02.197Z,98977.53
2023-10-30T10:38:30.595Z,99026.56
2023-10-30T10:40:59.171Z,99035.06
2023-10-30T10:43:30.556Z,98933.75
2023-10-30T10:46:00.890Z,99031.44
2023-10-30T10:48:30.159Z,99024.53
2023-10-30T10:51:03.292Z,99021.63
2023-10-30T10:53:32.842Z,99012.03
2023-10-30T10:56:06.245Z,99003.78
2023-10-30T10:58:43.375Z,98986.25
2023-10-30T11:01:19.730Z,98997.03
2023-10-30T11:03:50.047Z,98997.56
2023-10-30T11:06:20.031Z,98992.75
2023-10-30T11:08:56.921Z,98997.44
2023-10-30T11:11:30.884Z,98991.69
2023-10-30T11:14:13.708Z,98951.19
2023-10-30T11:16:49.837Z,98980.16
2023-10-30T11:19:21.966Z,98981.38
2023-10-30T11:21:51.212Z,98976.22
2023-10-30T11:24:38.707Z,98983.69
2023-10-30T11:27:38.035Z,98981.25
2023-10-30T11:30:12.894Z,98935.97
2023-10-30T11:32:55.303Z,98971.88
2023-10-30T11:35:24.220Z,98961.22
2023-10-30T11:37:54.070Z,98962.06
2023-10-30T11:40:22.932Z,98956.56
2023-10-30T11:42:58.764Z,98957.06
2023-10-30T11:45:30.022Z,98940.84
2023-10-30T11:48:06.387Z,98951.38
2023-10-30T11:50:36.593Z,98943.78
2023-10-30T11:53:12.528Z,98944.66
2023-10-30T11:55:41.772Z,98942.97
2023-10-30T11:58:11.843Z,98945.19
2023-10-30T12:00:43.740Z,98941.25
2023-10-30T12:03:12.068Z,98942.59
2023-10-30T12:05:40.310Z,98939.53
2023-10-30T12:08:11.218Z,98930.59
2023-10-30T12:10:40.667Z,98942.59
2023-10-30T12:13:10.393Z,98933.03
2023-10-30T12:15:38.477Z,98920.28
2023-10-30T12:18:08.288Z,98932.28
2023-10-30T12:20:36.840Z,98935.59
2023-10-30T12:23:05.487Z,98900.13
2023-10-30T12:25:34.058Z,98898.19
2023-10-30T12:28:02.973Z,98916.09
2023-10-30T12:30:35.359Z,98916.31
2023-10-30T12:33:04.246Z,98923.09
2023-10-30T12:35:35.446Z,98914.41
2023-10-30T12:38:14.890Z,98918.69
2023-10-30T12:40:45.972Z,98913.69
2023-10-30T12:43:14.714Z,98917.34
2023-10-30T12:45:43.200Z,98905.06
2023-10-30T12:48:11.332Z,98881.06
2023-10-30T12:50:42.082Z,98895.50
2023-10-30T12:53:12.516Z,98891.59
2023-10-30T12:55:41.155Z,98866.31
2023-10-30T12:58:09.140Z,98803.56
2023-10-30T13:00:37.059Z,98864.00
2023-10-30T13:03:05.323Z,98853.00
2023-10-30T13:05:33.398Z,98851.28
2023-10-30T13:08:03.067Z,98752.69
2023-10-30T13:10:31.198Z,98840.22
2023-10-30T13:12:59.190Z,98837.03
2023-10-30T13:15:27.825Z,98824.16
2023-10-30T13:17:56.069Z,98828.31
2023-10-30T13:20:24.507Z,98820.00
2023-10-30T13:22:52.695Z,98818.28
2023-10-30T13:25:22.487Z,98736.66
2023-10-30T13:27:50.469Z,98816.22
2023-10-30T13:30:20.029Z,98792.06
2023-10-30T13:32:48.030Z,98823.19
2023-10-30T13:35:16.305Z,98815.25
2023-10-30T13:37:44.550Z,98809.97
2023-10-30T13:40:14.437Z,98762.38
2023-10-30T13:42:44.177Z,98801.75
2023-10-30T13:45:12.525Z,98779.56
2023-10-30T13:47:40.752Z,98781.53
2023-10-30T13:50:09.361Z,98782.75
2023-10-30T13:52:37.360Z,98776.38
2023-10-30T13:55:06.946Z,98772.72
2023-10-30T13:57:35.225Z,98738.88
2023-10-30T14:00:07.347Z,98760.69
2023-10-30T14:02:35.352Z,98752.13
2023-10-30T14:05:04.528Z,98742.56
2023-10-30T14:07:33.325Z,98756.66
2023-10-30T14:10:01.704Z,98751.53
2023-10-30T14:12:30.659Z,98746.34
2023-10-30T14:14:58.972Z,98747.81
2023-10-30T14:17:28.759Z,98739.13
2023-10-30T14:19:56.913Z,98734.59
2023-10-30T14:22:25.135Z,98737.16
2023-10-30T14:24:53.481Z,98741.31
2023-10-30T14:27:21.935Z,98725.88
2023-10-30T14:29:51.252Z,98735.81
2023-10-30T14:32:19.873Z,98738.63
2023-10-30T14:34:50.101Z,98739.47
2023-10-30T14:37:18.136Z,98739.22
2023-10-30T14:39:47.032Z,98735.03
2023-10-30T14:42:14.987Z,98729.19
2023-10-30T14:44:43.097Z,98735.31
2023-10-30T14:47:11.522Z,98714.00
2023-10-30T14:49:39.484Z,98739.59
2023-10-30T14:52:09.857Z,98727.09
2023-10-30T14:54:37.983Z,98696.38
2023-10-30T14:57:06.389Z,98717.81
2023-10-30T14:59:34.689Z,98725.03
2023-10-30T15:02:03.386Z,98714.75
2023-10-30T15:04:31.628Z,98714.47
2023-10-30T15:07:01.282Z,98708.00
2023-10-30T15:09:31.082Z,98704.09
2023-10-30T15:11:59.337Z,98696.72
2023-10-30T15:14:29.801Z,98691.94
2023-10-30T15:16:58.170Z,98688.63
2023-10-30T15:19:28.075Z,98660.31
2023-10-30T15:21:56.788Z,98685.94
2023-10-30T15:24:25.937Z,98587.56
2023-10-30T15:26:56.752Z,98659.22
2023-10-30T15:29:25.197Z,98655.78
2023-10-30T15:31:53.233Z,98672.19
2023-10-30T15:34:21.529Z,98645.97
2023-10-30T15:36:52.947Z,98668.50
2023-10-30T15:39:22.183Z,98652.19
2023-10-30T15:41:50.445Z,98674.03
2023-10-30T15:44:20.127Z,98666.16
2023-10-30T15:46:56.947Z,98660.66
2023-10-30T15:49:27.043Z,98651.25
2023-10-30T15:59:27.786Z,98639.50
2023-10-30T16:04:24.819Z,98623.69
2023-10-30T16:07:11.286Z,98614.25
2023-10-30T16:09:39.691Z,98614.94
2023-10-30T16:14:43.639Z,98574.66
2023-10-30T16:19:43.445Z,98596.41
2023-10-30T16:22:12.775Z,98592.78
2023-10-30T16:24:40.844Z,98600.09
2023-10-30T16:27:09.129Z,98602.16
2023-10-30T16:29:37.289Z,98608.00
2023-10-30T16:32:07.321Z,98589.03
2023-10-30T16:34:35.680Z,98599.03
2023-10-30T16:37:05.062Z,98589.81
2023-10-30T16:39:33.259Z,98572.81
2023-10-30T16:42:01.446Z,98576.00
2023-10-30T16:44:30.214Z,98584.06
2023-10-30T16:46:58.785Z,98581.16
2023-10-30T16:49:28.411Z,98575.31
2023-10-30T16:51:57.108Z,98578.50
2023-10-30T16:54:25.226Z,98587.03
2023-10-30T16:56:53.170Z,98585.53
2023-10-30T16:59:21.252Z,98584.34
2023-10-30T17:01:51.200Z,98588.75
2023-10-30T17:04:19.363Z,98583.84
2023-10-30T17:06:48.889Z,98587.72
2023-10-30T17:09:17.161Z,98585.91
2023-10-30T17:11:45.825Z,98545.59
2023-10-30T17:14:15.528Z,98592.41
2023-10-30T17:16:45.961Z,98593.16
2023-10-30T17:19:16.298Z,98591.66
2023-10-30T17:21:44.633Z,98587.78
2023-10-30T17:24:14.320Z,98587.44
2023-10-30T17:26:42.545Z,98561.56
2023-10-30T17:29:11.062Z,98571.59
2023-10-30T17:31:39.397Z,98562.69
2023-10-30T17:34:08.022Z,98565.59
2023-10-30T17:36:36.349Z,98572.56
2023-10-30T17:39:07.914Z,98573.41
2023-10-30T17:41:37.537Z,98570.22
2023-10-30T17:44:06.645Z,98571.31
2023-10-30T17:46:35.114Z,98563.50
2023-10-30T17:49:03.454Z,98573.25
2023-10-30T17:51:31.548Z,98494.16
2023-10-30T17:53:59.750Z,98546.88
2023-10-30T17:56:31.726Z,98497.19
2023-10-30T17:59:01.296Z,98554.81
2023-10-30T18:01:30.043Z,98539.97
2023-10-30T18:03:58.331Z,98514.78
2023-10-30T18:06:25.757Z,98567.03
2023-10-30T18:08:54.283Z,98537.91
2023-10-30T18:11:23.899Z,98558.94
2023-10-30T18:13:52.248Z,98532.63
2023-10-30T18:16:22.151Z,98535.94
2023-10-30T18:18:50.512Z,98562.84
2023-10-30T18:21:18.939Z,98489.88
2023-10-30T18:23:47.226Z,98550.09
2023-10-30T18:26:22.382Z,98507.00
2023-10-30T18:28:50.506Z,98570.44
2023-10-30T18:31:18.897Z,98543.28
2023-10-30T18:33:49.184Z,98525.91
2023-10-30T18:36:17.153Z,98560.94
2023-10-30T18:38:45.934Z,98559.22
2023-10-30T18:41:14.070Z,98554.03
2023-10-30T18:43:43.702Z,98540.84
2023-10-30T18:46:17.178Z,98469.56
2023-10-30T18:48:46.051Z,98531.13
2023-10-30T18:51:15.758Z,98449.66
2023-10-30T18:53:44.364Z,98409.16
2023-10-30T18:56:14.378Z,98551.06
2023-10-30T18:58:42.762Z,98537.56
2023-10-30T19:01:11.807Z,98542.25
2023-10-30T19:03:41.846Z,98506.25
2023-10-30T19:06:11.417Z,98529.66
2023-10-30T19:08:40.906Z,98522.63
2023-10-30T19:11:09.406Z,98530.34
2023-10-30T19:13:38.420Z,98526.81
2023-10-30T19:16:06.915Z,98525.31
2023-10-30T19:18:35.278Z,98527.88
2023-10-30T19:21:04.308Z,98517.00
2023-10-30T19:23:32.464Z,98516.06
2023-10-30T19:26:02.867Z,98503.59
2023-10-30T19:28:30.853Z,98403.25
2023-10-30T19:31:03.557Z,98487.84
2023-10-30T19:33:32.464Z,98498.94
2023-10-30T19:36:00.732Z,98479.63
2023-10-30T19:38:29.332Z,98472.00
2023-10-30T19:40:57.687Z,98494.91
2023-10-30T19:43:28.447Z,98489.88
2023-10-30T19:45:56.972Z,98476.22
2023-10-30T19:48:27.148Z,98393.88
2023-10-30T19:50:55.215Z,98472.34
2023-10-30T19:53:23.815Z,98464.72
2023-10-30T19:55:52.092Z,98450.28
2023-10-30T19:58:21.365Z,98470.47
2023-10-30T20:00:51.229Z,98475.47
2023-10-30T20:03:20.848Z,98481.06
2023-10-30T20:05:48.963Z,98481.94
2023-10-30T20:08:17.655Z,98472.78
2023-10-30T20:10:47.292Z,98468.88
2023-10-30T20:13:16.944Z,98468.63
2023-10-30T20:15:45.282Z,98389.06
2023-10-30T20:18:15.029Z,98477.78
2023-10-30T20:20:43.396Z,98451.19
2023-10-30T20:23:11.898Z,98475.34
2023-10-30T20:25:39.972Z,98452.47
2023-10-30T20:28:08.225Z,98467.13
2023-10-30T20:30:36.604Z,98467.66
2023-10-30T20:33:04.900Z,98405.22
2023-10-30T20:35:34.661Z,98348.47
2023-10-30T20:38:03.024Z,98342.34
2023-10-30T20:40:31.498Z,98448.69
2023-10-30T20:43:01.023Z,98454.56
2023-10-30T20:45:29.426Z,98452.13
2023-10-30T20:47:57.872Z,98427.03
2023-10-30T20:50:26.179Z,98371.38
2023-10-30T20:52:55.671Z,98397.94
2023-10-30T20:55:23.745Z,98430.38
2023-10-30T20:57:52.062Z,98392.31
2023-10-30T21:00:20.993Z,98427.50
2023-10-30T21:02:49.048Z,98357.81
2023-10-30T21:05:18.267Z,98428.22
2023-10-30T21:07:46.281Z,98425.78
2023-10-30T21:10:15.910Z,98411.59
2023-10-30T21:12:44.065Z,98348.59
2023-10-30T21:15:12.816Z,98416.13
2023-10-30T21:17:40.871Z,98413.56
2023-10-30T21:20:09.895Z,98341.31
2023-10-30T21:22:38.364Z,98379.94
2023-10-30T21:25:07.249Z,98402.94
2023-10-30T21:27:37.729Z,98407.09
2023-10-30T21:30:07.232Z,98414.41
2023-10-30T21:32:35.869Z,98404.78
2023-10-30T21:35:05.785Z,98395.47
2023-10-30T21:37:34.561Z,98395.47
2023-10-30T21:40:03.084Z,98367.09
2023-10-30T21:42:31.413Z,98379.97
2023-10-30T21:45:00.959Z,98376.44
2023-10-30T21:47:30.984Z,98372.31
2023-10-30T21:50:01.274Z,98369.97
2023-10-30T21:52:29.683Z,98355.78
2023-10-30T21:54:58.006Z,98322.66
2023-10-30T21:57:26.176Z,98351.13
2023-10-30T21:59:54.527Z,98319.09
2023-10-30T22:02:24.318Z,98332.81
2023-10-30T22:04:52.959Z,98334.66
2023-10-30T22:07:22.140Z,98308.09
2023-10-30T22:09:50.246Z,98323.06
2023-10-30T22:12:18.500Z,98319.16
2023-10-30T22:14:46.773Z,98297.78
2023-10-30T22:17:15.017Z,98283.00
2023-10-30T22:19:45.766Z,98317.47
2023-10-30T22:22:14.095Z,98304.13
2023-10-30T22:24:41.947Z,98274.81
2023-10-30T22:27:10.369Z,98284.97
2023-10-30T22:29:38.542Z,98218.97
2023-10-30T22:32:07.048Z,98277.78
2023-10-30T22:34:35.025Z,98282.06
2023-10-30T22:37:05.759Z,98271.53
2023-10-30T22:39:33.856Z,98225.34
2023-10-30T22:42:03.000Z,98269.59
2023-10-30T22:44:31.448Z,98264.47
2023-10-30T22:47:00.101Z,98266.91
2023-10-30T22:49:28.154Z,98256.66
2023-10-30T22:51:56.394Z,98226.50
2023-10-30T22:54:26.353Z,98251.31
2023-10-30T22:56:54.246Z,98246.56
2023-10-30T22:59:22.252Z,98235.69
2023-10-30T23:01:50.551Z,98214.47
2023-10-30T23:04:18.743Z,98242.69
2023-10-30T23:06:46.807Z,98247.16
2023-10-30T23:09:15.569Z,98200.16
2023-10-30T23:11:45.400Z,98221.78
2023-10-30T23:14:13.709Z,98236.22
2023-10-30T23:16:42.334Z,98242.53
2023-10-30T23:19:10.707Z,98233.97
2023-10-30T23:21:38.767Z,98239.56
2023-10-30T23:24:07.883Z,98238.13
2023-10-30T23:26:35.992Z,98238.25
2023-10-30T23:29:05.869Z,98237.63
2023-10-30T23:31:34.385Z,98243.75
2023-10-30T23:34:03.534Z,98250.81
2023-10-30T23:36:31.906Z,98256.53
2023-10-30T23:39:00.029Z,98252.50
2023-10-30T23:41:28.380Z,98263.22
2023-10-30T23:43:56.484Z,98265.06
2023-10-30T23:46:35.351Z,98266.56
2023-10-30T23:49:07.344Z,98266.06
2023-10-30T23:51:35.422Z,98267.06
2023-10-30T23:54:03.807Z,98264.00
2023-10-30T23:56:31.803Z,98258.84
2023-10-30T23:59:00.596Z,98255.09
